Lund, Canada
Current Conditions -  °F | °C
As of 7:00 PM on Thursday 27 Nov 2014 (Local Time) from CYPW Reporting Station
Broken Clouds Broken Clouds  
Wind Chill: 54°   Ceiling: 12000
Heat Index: 54°   Visibility: 20mi
Dew Point: 48°   Wind: 9mph
Humidity: 82%   Direction: 120°ESE
Pressure: 29.51"   Gusts: NA
Location:  49.98°N, 124.76°W
Report Text: CYPW 280300Z 12008KT 100V170 20SM FEW008 FEW025 SCT050 BKN120 12/09 A2951 RMK SF1SC2SC2AC2 SF TR LAST OBS/NEXT 281500 UTC SLP994 DENSITY ALT 600FT
Loading
Personal Weather Stations






























Interactive Weather Map New forecast layout! Learn more

10-Day Weather Forecast

Advertisements
Track Severe Weather on mobile